sensor_id;sensor_type;location;lat;lon;timestamp;P1;durP1;ratioP1;P2;durP2;ratioP2
4819;SDS011;2424;49.696;6.630;2023-06-19T00:01:06;5.60;;;4.70;;
4819;SDS011;2424;49.696;6.630;2023-06-19T00:06:28;3.60;;;3.40;;
4819;SDS011;2424;49.696;6.630;2023-06-19T00:11:50;4.77;;;4.27;;
4819;SDS011;2424;49.696;6.630;2023-06-19T00:17:13;4.60;;;4.20;;
4819;SDS011;2424;49.696;6.630;2023-06-19T00:22:36;4.37;;;3.97;;
4819;SDS011;2424;49.696;6.630;2023-06-19T00:27:58;4.10;;;3.80;;
4819;SDS011;2424;49.696;6.630;2023-06-19T00:33:22;4.73;;;4.30;;
4819;SDS011;2424;49.696;6.630;2023-06-19T00:38:44;6.43;;;4.10;;
4819;SDS011;2424;49.696;6.630;2023-06-19T00:44:06;5.10;;;4.23;;
4819;SDS011;2424;49.696;6.630;2023-06-19T00:49:29;4.30;;;3.90;;
4819;SDS011;2424;49.696;6.630;2023-06-19T00:54:53;4.17;;;3.87;;
4819;SDS011;2424;49.696;6.630;2023-06-19T01:00:15;4.80;;;4.40;;
4819;SDS011;2424;49.696;6.630;2023-06-19T01:05:39;4.23;;;3.93;;
4819;SDS011;2424;49.696;6.630;2023-06-19T01:11:01;4.33;;;4.03;;
4819;SDS011;2424;49.696;6.630;2023-06-19T01:16:25;4.37;;;3.97;;
4819;SDS011;2424;49.696;6.630;2023-06-19T01:21:49;3.93;;;3.60;;
4819;SDS011;2424;49.696;6.630;2023-06-19T01:27:12;3.77;;;3.57;;
4819;SDS011;2424;49.696;6.630;2023-06-19T01:32:36;4.20;;;3.80;;
4819;SDS011;2424;49.696;6.630;2023-06-19T01:38:02;3.70;;;3.43;;
4819;SDS011;2424;49.696;6.630;2023-06-19T01:43:27;4.00;;;3.70;;
4819;SDS011;2424;49.696;6.630;2023-06-19T01:48:51;4.63;;;3.87;;
4819;SDS011;2424;49.696;6.630;2023-06-19T01:54:13;4.57;;;3.90;;
4819;SDS011;2424;49.696;6.630;2023-06-19T01:59:37;4.17;;;3.87;;
4819;SDS011;2424;49.696;6.630;2023-06-19T02:04:59;3.40;;;3.20;;
4819;SDS011;2424;49.696;6.630;2023-06-19T02:10:21;2.83;;;2.67;;
4819;SDS011;2424;49.696;6.630;2023-06-19T02:15:44;2.93;;;2.73;;
4819;SDS011;2424;49.696;6.630;2023-06-19T02:21:06;3.43;;;2.80;;
4819;SDS011;2424;49.696;6.630;2023-06-19T02:26:28;2.83;;;2.63;;
4819;SDS011;2424;49.696;6.630;2023-06-19T02:31:51;2.57;;;2.37;;
4819;SDS011;2424;49.696;6.630;2023-06-19T02:37:13;2.10;;;2.00;;
4819;SDS011;2424;49.696;6.630;2023-06-19T02:42:35;4.00;;;3.13;;
4819;SDS011;2424;49.696;6.630;2023-06-19T02:47:58;3.07;;;2.87;;
4819;SDS011;2424;49.696;6.630;2023-06-19T02:53:20;2.20;;;2.10;;
4819;SDS011;2424;49.696;6.630;2023-06-19T02:58:42;2.53;;;2.33;;
4819;SDS011;2424;49.696;6.630;2023-06-19T03:04:05;1.97;;;1.97;;
4819;SDS011;2424;49.696;6.630;2023-06-19T03:09:27;2.30;;;2.20;;
4819;SDS011;2424;49.696;6.630;2023-06-19T03:14:49;2.10;;;1.93;;
4819;SDS011;2424;49.696;6.630;2023-06-19T03:20:13;1.80;;;1.70;;
4819;SDS011;2424;49.696;6.630;2023-06-19T03:25:35;1.80;;;1.70;;
4819;SDS011;2424;49.696;6.630;2023-06-19T03:31:02;1.80;;;1.70;;
4819;SDS011;2424;49.696;6.630;2023-06-19T03:36:26;2.10;;;2.00;;
4819;SDS011;2424;49.696;6.630;2023-06-19T03:41:48;1.97;;;1.87;;
4819;SDS011;2424;49.696;6.630;2023-06-19T03:47:10;2.20;;;1.70;;
4819;SDS011;2424;49.696;6.630;2023-06-19T03:52:33;2.03;;;1.93;;
4819;SDS011;2424;49.696;6.630;2023-06-19T03:57:55;1.90;;;1.80;;
4819;SDS011;2424;49.696;6.630;2023-06-19T04:03:17;1.70;;;1.60;;
4819;SDS011;2424;49.696;6.630;2023-06-19T04:08:40;1.70;;;1.60;;
4819;SDS011;2424;49.696;6.630;2023-06-19T04:14:02;1.53;;;1.53;;
4819;SDS011;2424;49.696;6.630;2023-06-19T04:19:24;2.80;;;1.67;;
4819;SDS011;2424;49.696;6.630;2023-06-19T04:24:48;1.70;;;1.60;;
4819;SDS011;2424;49.696;6.630;2023-06-19T04:30:10;1.53;;;1.53;;
4819;SDS011;2424;49.696;6.630;2023-06-19T04:35:33;1.80;;;1.70;;
4819;SDS011;2424;49.696;6.630;2023-06-19T04:41:01;1.40;;;1.33;;
4819;SDS011;2424;49.696;6.630;2023-06-19T04:46:23;1.93;;;1.83;;
4819;SDS011;2424;49.696;6.630;2023-06-19T04:51:45;1.30;;;1.30;;
4819;SDS011;2424;49.696;6.630;2023-06-19T04:57:09;2.20;;;2.03;;
4819;SDS011;2424;49.696;6.630;2023-06-19T05:02:32;2.20;;;2.00;;
4819;SDS011;2424;49.696;6.630;2023-06-19T05:07:55;2.03;;;1.93;;
4819;SDS011;2424;49.696;6.630;2023-06-19T05:13:19;3.53;;;2.00;;
4819;SDS011;2424;49.696;6.630;2023-06-19T05:18:41;3.63;;;2.83;;
4819;SDS011;2424;49.696;6.630;2023-06-19T05:24:03;1.87;;;1.77;;
4819;SDS011;2424;49.696;6.630;2023-06-19T05:29:26;2.20;;;2.10;;
4819;SDS011;2424;49.696;6.630;2023-06-19T05:34:50;2.30;;;2.20;;
4819;SDS011;2424;49.696;6.630;2023-06-19T05:40:12;1.63;;;1.53;;
4819;SDS011;2424;49.696;6.630;2023-06-19T05:45:36;2.10;;;2.00;;
4819;SDS011;2424;49.696;6.630;2023-06-19T05:50:58;2.10;;;2.00;;
4819;SDS011;2424;49.696;6.630;2023-06-19T05:56:20;2.23;;;2.03;;
4819;SDS011;2424;49.696;6.630;2023-06-19T06:01:44;2.67;;;2.40;;
4819;SDS011;2424;49.696;6.630;2023-06-19T06:07:06;2.10;;;2.00;;
4819;SDS011;2424;49.696;6.630;2023-06-19T06:12:28;2.10;;;2.00;;
4819;SDS011;2424;49.696;6.630;2023-06-19T06:17:51;3.43;;;2.23;;
4819;SDS011;2424;49.696;6.630;2023-06-19T06:23:13;2.00;;;1.87;;
4819;SDS011;2424;49.696;6.630;2023-06-19T06:28:35;2.80;;;2.60;;
4819;SDS011;2424;49.696;6.630;2023-06-19T06:34:00;3.30;;;2.50;;
4819;SDS011;2424;49.696;6.630;2023-06-19T06:39:22;2.20;;;2.00;;
4819;SDS011;2424;49.696;6.630;2023-06-19T06:44:44;2.90;;;2.20;;
4819;SDS011;2424;49.696;6.630;2023-06-19T06:50:08;1.77;;;1.67;;
4819;SDS011;2424;49.696;6.630;2023-06-19T06:55:31;2.47;;;2.27;;
4819;SDS011;2424;49.696;6.630;2023-06-19T07:00:53;2.07;;;1.97;;
4819;SDS011;2424;49.696;6.630;2023-06-19T07:06:16;1.70;;;1.60;;
4819;SDS011;2424;49.696;6.630;2023-06-19T07:11:38;2.43;;;2.33;;
4819;SDS011;2424;49.696;6.630;2023-06-19T07:17:00;2.80;;;2.60;;
4819;SDS011;2424;49.696;6.630;2023-06-19T07:22:23;1.97;;;1.90;;
4819;SDS011;2424;49.696;6.630;2023-06-19T07:27:45;2.67;;;2.27;;
4819;SDS011;2424;49.696;6.630;2023-06-19T07:33:07;2.40;;;2.20;;
4819;SDS011;2424;49.696;6.630;2023-06-19T07:38:30;2.90;;;2.23;;
4819;SDS011;2424;49.696;6.630;2023-06-19T07:43:52;3.00;;;2.20;;
4819;SDS011;2424;49.696;6.630;2023-06-19T07:49:14;2.10;;;2.00;;
4819;SDS011;2424;49.696;6.630;2023-06-19T07:54:38;1.87;;;1.80;;
4819;SDS011;2424;49.696;6.630;2023-06-19T08:00:09;2.20;;;2.10;;
4819;SDS011;2424;49.696;6.630;2023-06-19T08:05:33;1.87;;;1.77;;
4819;SDS011;2424;49.696;6.630;2023-06-19T08:10:56;1.60;;;1.60;;
4819;SDS011;2424;49.696;6.630;2023-06-19T08:16:18;1.47;;;1.37;;
4819;SDS011;2424;49.696;6.630;2023-06-19T08:21:40;1.33;;;1.30;;
4819;SDS011;2424;49.696;6.630;2023-06-19T08:27:04;1.60;;;1.50;;
4819;SDS011;2424;49.696;6.630;2023-06-19T08:32:26;1.80;;;1.70;;
4819;SDS011;2424;49.696;6.630;2023-06-19T08:37:51;1.70;;;1.67;;
4819;SDS011;2424;49.696;6.630;2023-06-19T08:43:14;1.70;;;1.70;;
4819;SDS011;2424;49.696;6.630;2023-06-19T08:48:36;1.73;;;1.73;;
4819;SDS011;2424;49.696;6.630;2023-06-19T08:54:00;1.73;;;1.63;;
4819;SDS011;2424;49.696;6.630;2023-06-19T08:59:26;3.20;;;1.97;;
4819;SDS011;2424;49.696;6.630;2023-06-19T09:04:48;2.00;;;1.80;;
4819;SDS011;2424;49.696;6.630;2023-06-19T09:10:14;1.30;;;1.30;;
4819;SDS011;2424;49.696;6.630;2023-06-19T09:15:39;3.10;;;1.70;;
4819;SDS011;2424;49.696;6.630;2023-06-19T09:21:01;1.50;;;1.40;;
4819;SDS011;2424;49.696;6.630;2023-06-19T09:26:23;1.23;;;1.23;;
4819;SDS011;2424;49.696;6.630;2023-06-19T09:31:46;1.30;;;1.27;;
4819;SDS011;2424;49.696;6.630;2023-06-19T09:37:08;1.53;;;1.43;;
4819;SDS011;2424;49.696;6.630;2023-06-19T09:42:31;1.70;;;1.67;;
4819;SDS011;2424;49.696;6.630;2023-06-19T09:47:56;1.63;;;1.63;;
4819;SDS011;2424;49.696;6.630;2023-06-19T09:53:18;1.60;;;1.50;;
4819;SDS011;2424;49.696;6.630;2023-06-19T09:58:41;2.10;;;2.10;;
4819;SDS011;2424;49.696;6.630;2023-06-19T10:04:06;1.33;;;1.33;;
4819;SDS011;2424;49.696;6.630;2023-06-19T10:09:32;5.50;;;1.70;;
4819;SDS011;2424;49.696;6.630;2023-06-19T10:14:54;1.60;;;1.60;;
4819;SDS011;2424;49.696;6.630;2023-06-19T10:20:24;1.40;;;1.40;;
4819;SDS011;2424;49.696;6.630;2023-06-19T10:25:55;1.67;;;1.63;;
4819;SDS011;2424;49.696;6.630;2023-06-19T10:31:18;1.97;;;1.87;;
4819;SDS011;2424;49.696;6.630;2023-06-19T10:36:41;1.60;;;1.50;;
4819;SDS011;2424;49.696;6.630;2023-06-19T10:42:05;1.50;;;1.43;;
4819;SDS011;2424;49.696;6.630;2023-06-19T10:47:28;1.60;;;1.50;;
4819;SDS011;2424;49.696;6.630;2023-06-19T10:52:52;1.70;;;1.60;;
4819;SDS011;2424;49.696;6.630;2023-06-19T10:58:15;2.13;;;2.03;;
4819;SDS011;2424;49.696;6.630;2023-06-19T11:03:37;1.77;;;1.67;;
4819;SDS011;2424;49.696;6.630;2023-06-19T11:09:00;1.73;;;1.50;;
4819;SDS011;2424;49.696;6.630;2023-06-19T11:14:28;2.20;;;1.63;;
4819;SDS011;2424;49.696;6.630;2023-06-19T11:19:51;2.40;;;1.73;;
4819;SDS011;2424;49.696;6.630;2023-06-19T11:25:14;1.47;;;1.37;;
4819;SDS011;2424;49.696;6.630;2023-06-19T11:30:36;1.37;;;1.37;;
4819;SDS011;2424;49.696;6.630;2023-06-19T11:35:59;1.50;;;1.50;;
4819;SDS011;2424;49.696;6.630;2023-06-19T11:41:27;1.37;;;1.33;;
4819;SDS011;2424;49.696;6.630;2023-06-19T11:46:49;1.70;;;1.60;;
4819;SDS011;2424;49.696;6.630;2023-06-19T11:52:11;1.27;;;1.17;;
4819;SDS011;2424;49.696;6.630;2023-06-19T11:57:34;1.07;;;1.07;;
4819;SDS011;2424;49.696;6.630;2023-06-19T12:02:56;2.60;;;1.70;;
4819;SDS011;2424;49.696;6.630;2023-06-19T12:08:18;1.60;;;1.60;;
4819;SDS011;2424;49.696;6.630;2023-06-19T12:13:42;1.60;;;1.50;;
4819;SDS011;2424;49.696;6.630;2023-06-19T12:19:04;1.27;;;1.20;;
4819;SDS011;2424;49.696;6.630;2023-06-19T12:24:26;0.90;;;0.90;;
4819;SDS011;2424;49.696;6.630;2023-06-19T12:29:50;1.37;;;1.33;;
4819;SDS011;2424;49.696;6.630;2023-06-19T12:35:11;1.93;;;1.83;;
4819;SDS011;2424;49.696;6.630;2023-06-19T12:40:33;1.10;;;1.10;;
4819;SDS011;2424;49.696;6.630;2023-06-19T12:45:57;1.53;;;1.50;;
4819;SDS011;2424;49.696;6.630;2023-06-19T12:51:20;1.20;;;1.20;;
4819;SDS011;2424;49.696;6.630;2023-06-19T12:56:42;1.57;;;1.47;;
4819;SDS011;2424;49.696;6.630;2023-06-19T13:02:05;1.17;;;1.17;;
4819;SDS011;2424;49.696;6.630;2023-06-19T13:07:27;1.40;;;1.40;;
4819;SDS011;2424;49.696;6.630;2023-06-19T13:12:49;1.33;;;1.33;;
4819;SDS011;2424;49.696;6.630;2023-06-19T13:18:13;1.50;;;1.50;;
4819;SDS011;2424;49.696;6.630;2023-06-19T13:23:35;1.17;;;1.17;;
4819;SDS011;2424;49.696;6.630;2023-06-19T13:28:57;4.57;;;1.43;;
4819;SDS011;2424;49.696;6.630;2023-06-19T13:34:20;1.40;;;1.40;;
4819;SDS011;2424;49.696;6.630;2023-06-19T13:39:42;1.27;;;1.27;;
4819;SDS011;2424;49.696;6.630;2023-06-19T13:45:05;1.40;;;1.40;;
4819;SDS011;2424;49.696;6.630;2023-06-19T13:50:29;1.60;;;1.50;;
4819;SDS011;2424;49.696;6.630;2023-06-19T13:55:52;1.23;;;1.23;;
4819;SDS011;2424;49.696;6.630;2023-06-19T14:01:14;1.70;;;1.60;;
4819;SDS011;2424;49.696;6.630;2023-06-19T14:06:38;1.50;;;1.50;;
4819;SDS011;2424;49.696;6.630;2023-06-19T14:12:02;1.57;;;1.57;;
4819;SDS011;2424;49.696;6.630;2023-06-19T14:17:25;1.10;;;1.10;;
4819;SDS011;2424;49.696;6.630;2023-06-19T14:22:48;1.50;;;1.50;;
4819;SDS011;2424;49.696;6.630;2023-06-19T14:28:10;2.00;;;1.90;;
4819;SDS011;2424;49.696;6.630;2023-06-19T14:33:34;1.40;;;1.40;;
4819;SDS011;2424;49.696;6.630;2023-06-19T14:38:58;2.07;;;1.97;;
4819;SDS011;2424;49.696;6.630;2023-06-19T14:44:20;1.67;;;1.57;;
4819;SDS011;2424;49.696;6.630;2023-06-19T14:49:42;1.90;;;1.80;;
4819;SDS011;2424;49.696;6.630;2023-06-19T14:55:06;2.00;;;1.90;;
4819;SDS011;2424;49.696;6.630;2023-06-19T15:00:28;1.63;;;1.60;;
4819;SDS011;2424;49.696;6.630;2023-06-19T15:05:50;1.93;;;1.80;;
4819;SDS011;2424;49.696;6.630;2023-06-19T15:11:14;3.77;;;1.37;;
4819;SDS011;2424;49.696;6.630;2023-06-19T15:16:36;2.10;;;1.90;;
4819;SDS011;2424;49.696;6.630;2023-06-19T15:21:58;2.03;;;1.70;;
4819;SDS011;2424;49.696;6.630;2023-06-19T15:27:21;1.60;;;1.57;;
4819;SDS011;2424;49.696;6.630;2023-06-19T15:32:43;1.40;;;1.37;;
4819;SDS011;2424;49.696;6.630;2023-06-19T15:38:05;2.30;;;1.70;;
4819;SDS011;2424;49.696;6.630;2023-06-19T15:43:29;1.30;;;1.30;;
4819;SDS011;2424;49.696;6.630;2023-06-19T15:48:50;1.60;;;1.50;;
4819;SDS011;2424;49.696;6.630;2023-06-19T15:54:13;1.73;;;1.63;;
4819;SDS011;2424;49.696;6.630;2023-06-19T15:59:37;1.30;;;1.30;;
4819;SDS011;2424;49.696;6.630;2023-06-19T16:04:58;2.13;;;1.93;;
4819;SDS011;2424;49.696;6.630;2023-06-19T16:10:20;2.10;;;2.00;;
4819;SDS011;2424;49.696;6.630;2023-06-19T16:15:44;1.83;;;1.73;;
4819;SDS011;2424;49.696;6.630;2023-06-19T16:21:06;1.77;;;1.67;;
4819;SDS011;2424;49.696;6.630;2023-06-19T16:26:28;3.07;;;2.90;;
4819;SDS011;2424;49.696;6.630;2023-06-19T16:31:51;1.70;;;1.70;;
4819;SDS011;2424;49.696;6.630;2023-06-19T16:37:13;1.90;;;1.80;;
4819;SDS011;2424;49.696;6.630;2023-06-19T16:42:35;1.53;;;1.53;;
4819;SDS011;2424;49.696;6.630;2023-06-19T16:47:59;1.70;;;1.60;;
4819;SDS011;2424;49.696;6.630;2023-06-19T16:53:21;1.43;;;1.43;;
4819;SDS011;2424;49.696;6.630;2023-06-19T16:58:43;1.80;;;1.70;;
4819;SDS011;2424;49.696;6.630;2023-06-19T17:04:06;2.87;;;2.27;;
4819;SDS011;2424;49.696;6.630;2023-06-19T17:09:28;2.07;;;1.97;;
4819;SDS011;2424;49.696;6.630;2023-06-19T17:14:50;1.73;;;1.73;;
4819;SDS011;2424;49.696;6.630;2023-06-19T17:20:14;1.87;;;1.77;;
4819;SDS011;2424;49.696;6.630;2023-06-19T17:25:36;1.63;;;1.60;;
4819;SDS011;2424;49.696;6.630;2023-06-19T17:30:58;2.30;;;1.80;;
4819;SDS011;2424;49.696;6.630;2023-06-19T17:36:21;1.53;;;1.53;;
4819;SDS011;2424;49.696;6.630;2023-06-19T17:41:43;1.90;;;1.80;;
4819;SDS011;2424;49.696;6.630;2023-06-19T17:47:06;1.90;;;1.80;;
4819;SDS011;2424;49.696;6.630;2023-06-19T17:52:29;1.77;;;1.67;;
4819;SDS011;2424;49.696;6.630;2023-06-19T17:57:51;2.00;;;1.90;;
4819;SDS011;2424;49.696;6.630;2023-06-19T18:03:13;2.00;;;1.90;;
4819;SDS011;2424;49.696;6.630;2023-06-19T18:08:37;1.67;;;1.57;;
4819;SDS011;2424;49.696;6.630;2023-06-19T18:13:59;1.90;;;1.80;;
4819;SDS011;2424;49.696;6.630;2023-06-19T18:19:21;1.60;;;1.50;;
4819;SDS011;2424;49.696;6.630;2023-06-19T18:24:45;1.50;;;1.40;;
4819;SDS011;2424;49.696;6.630;2023-06-19T18:30:07;1.50;;;1.40;;
4819;SDS011;2424;49.696;6.630;2023-06-19T18:35:30;2.57;;;1.73;;
4819;SDS011;2424;49.696;6.630;2023-06-19T18:40:54;1.77;;;1.67;;
4819;SDS011;2424;49.696;6.630;2023-06-19T18:46:16;2.10;;;1.83;;
4819;SDS011;2424;49.696;6.630;2023-06-19T18:51:38;2.00;;;1.90;;
4819;SDS011;2424;49.696;6.630;2023-06-19T18:57:02;1.80;;;1.70;;
4819;SDS011;2424;49.696;6.630;2023-06-19T19:02:24;1.53;;;1.43;;
4819;SDS011;2424;49.696;6.630;2023-06-19T19:07:46;1.80;;;1.57;;
4819;SDS011;2424;49.696;6.630;2023-06-19T19:13:10;1.90;;;1.80;;
4819;SDS011;2424;49.696;6.630;2023-06-19T19:18:33;2.27;;;2.17;;
4819;SDS011;2424;49.696;6.630;2023-06-19T19:23:55;2.37;;;2.17;;
4819;SDS011;2424;49.696;6.630;2023-06-19T19:29:18;1.47;;;1.43;;
4819;SDS011;2424;49.696;6.630;2023-06-19T19:34:40;1.97;;;1.87;;
4819;SDS011;2424;49.696;6.630;2023-06-19T19:40:02;1.87;;;1.80;;
4819;SDS011;2424;49.696;6.630;2023-06-19T19:45:26;2.07;;;1.50;;
4819;SDS011;2424;49.696;6.630;2023-06-19T19:50:48;1.80;;;1.70;;
4819;SDS011;2424;49.696;6.630;2023-06-19T19:56:10;1.83;;;1.83;;
4819;SDS011;2424;49.696;6.630;2023-06-19T20:01:34;2.50;;;1.90;;
4819;SDS011;2424;49.696;6.630;2023-06-19T20:06:56;1.87;;;1.77;;
4819;SDS011;2424;49.696;6.630;2023-06-19T20:12:18;1.53;;;1.43;;
4819;SDS011;2424;49.696;6.630;2023-06-19T20:17:42;1.90;;;1.80;;
4819;SDS011;2424;49.696;6.630;2023-06-19T20:23:06;1.70;;;1.60;;
4819;SDS011;2424;49.696;6.630;2023-06-19T20:28:28;1.33;;;1.30;;
4819;SDS011;2424;49.696;6.630;2023-06-19T20:33:51;1.93;;;1.83;;
4819;SDS011;2424;49.696;6.630;2023-06-19T20:39:13;2.07;;;1.97;;
4819;SDS011;2424;49.696;6.630;2023-06-19T20:44:35;1.87;;;1.77;;
4819;SDS011;2424;49.696;6.630;2023-06-19T20:49:59;1.90;;;1.70;;
4819;SDS011;2424;49.696;6.630;2023-06-19T20:55:21;2.00;;;1.90;;
4819;SDS011;2424;49.696;6.630;2023-06-19T21:00:43;1.87;;;1.77;;
4819;SDS011;2424;49.696;6.630;2023-06-19T21:06:07;2.30;;;2.20;;
4819;SDS011;2424;49.696;6.630;2023-06-19T21:11:28;2.27;;;2.17;;
4819;SDS011;2424;49.696;6.630;2023-06-19T21:16:51;2.40;;;2.30;;
4819;SDS011;2424;49.696;6.630;2023-06-19T21:22:18;1.80;;;1.70;;
4819;SDS011;2424;49.696;6.630;2023-06-19T21:27:40;2.23;;;2.03;;
4819;SDS011;2424;49.696;6.630;2023-06-19T21:33:02;2.40;;;1.97;;
4819;SDS011;2424;49.696;6.630;2023-06-19T21:38:25;2.60;;;2.50;;
4819;SDS011;2424;49.696;6.630;2023-06-19T21:43:51;2.23;;;2.13;;
4819;SDS011;2424;49.696;6.630;2023-06-19T21:49:13;3.17;;;2.70;;
4819;SDS011;2424;49.696;6.630;2023-06-19T21:54:36;2.63;;;2.43;;
4819;SDS011;2424;49.696;6.630;2023-06-19T21:59:58;2.30;;;2.20;;
4819;SDS011;2424;49.696;6.630;2023-06-19T22:05:20;2.30;;;2.20;;
4819;SDS011;2424;49.696;6.630;2023-06-19T22:10:43;2.20;;;2.10;;
4819;SDS011;2424;49.696;6.630;2023-06-19T22:16:05;2.53;;;2.43;;
4819;SDS011;2424;49.696;6.630;2023-06-19T22:21:28;2.20;;;2.10;;
4819;SDS011;2424;49.696;6.630;2023-06-19T22:26:51;2.43;;;2.23;;
4819;SDS011;2424;49.696;6.630;2023-06-19T22:32:13;2.30;;;2.13;;
4819;SDS011;2424;49.696;6.630;2023-06-19T22:37:35;3.00;;;2.80;;
4819;SDS011;2424;49.696;6.630;2023-06-19T22:42:59;1.90;;;1.80;;
4819;SDS011;2424;49.696;6.630;2023-06-19T22:48:21;2.80;;;2.57;;
4819;SDS011;2424;49.696;6.630;2023-06-19T22:53:46;2.53;;;2.33;;
4819;SDS011;2424;49.696;6.630;2023-06-19T22:59:09;2.83;;;2.63;;
4819;SDS011;2424;49.696;6.630;2023-06-19T23:04:31;2.57;;;2.47;;
4819;SDS011;2424;49.696;6.630;2023-06-19T23:09:53;2.23;;;2.13;;
4819;SDS011;2424;49.696;6.630;2023-06-19T23:15:17;2.60;;;2.40;;
4819;SDS011;2424;49.696;6.630;2023-06-19T23:20:39;2.40;;;2.30;;
4819;SDS011;2424;49.696;6.630;2023-06-19T23:26:01;2.27;;;2.17;;
4819;SDS011;2424;49.696;6.630;2023-06-19T23:31:24;2.23;;;2.13;;
4819;SDS011;2424;49.696;6.630;2023-06-19T23:36:46;3.40;;;3.10;;
4819;SDS011;2424;49.696;6.630;2023-06-19T23:42:08;2.87;;;2.77;;
4819;SDS011;2424;49.696;6.630;2023-06-19T23:47:33;2.87;;;2.63;;
4819;SDS011;2424;49.696;6.630;2023-06-19T23:52:55;3.27;;;2.50;;
4819;SDS011;2424;49.696;6.630;2023-06-19T23:58:16;3.57;;;2.40;;
